Time;durP1;ratioP1;P1;durP2;ratioP2;P2;SDS_P1;SDS_P2;PMS_P1;PMS_P2;Temp;Humidity;BMP_temperature;BMP_pressure;BME280_temperature;BME280_humidity;BME280_pressure;Samples;Min_cycle;Max_cycle;Signal;HPM_P1;HPM_P2
2021/03/02 00:01:42;;;;;;;12.05;8.48;;;5.70;73.50;;;;;;5029281;28;20358;-56
2021/03/02 00:04:08;;;;;;;13.02;8.55;;;5.70;73.80;;;;;;5033885;28;20083;-54
2021/03/02 00:06:34;;;;;;;12.70;8.38;;;5.70;73.40;;;;;;5032390;28;20462;-52
2021/03/02 00:09:00;;;;;;;12.48;8.98;;;5.70;73.50;;;;;;5025197;28;20060;-55
2021/03/02 00:11:27;;;;;;;13.30;8.85;;;5.70;73.60;;;;;;5032484;28;20473;-56
2021/03/02 00:13:52;;;;;;;13.70;9.68;;;5.70;73.70;;;;;;5025569;28;20026;-56
2021/03/02 00:16:25;;;;;;;12.20;7.97;;;5.70;73.60;;;;;;5013902;28;20030;-54
2021/03/02 00:19:00;;;;;;;12.10;8.80;;;5.70;73.60;;;;;;5017048;28;20017;-53
2021/03/02 00:21:40;;;;;;;12.25;9.38;;;5.70;73.70;;;;;;5013986;28;20389;-53
2021/03/02 00:24:10;;;;;;;12.82;9.55;;;5.70;73.70;;;;;;5024878;28;20025;-53
2021/03/02 00:26:51;;;;;;;12.52;9.23;;;5.70;73.70;;;;;;5032960;28;20116;-54
2021/03/02 00:29:17;;;;;;;11.02;8.18;;;5.70;73.70;;;;;;5029784;28;20030;-52
2021/03/02 00:31:44;;;;;;;10.60;8.45;;;5.70;73.70;;;;;;5015599;28;20045;-53
2021/03/02 00:34:11;;;;;;;13.55;8.82;;;5.70;73.90;;;;;;5025235;28;20026;-53
2021/03/02 00:36:37;;;;;;;11.75;8.93;;;5.70;73.80;;;;;;5028018;28;20057;-55
2021/03/02 00:39:03;;;;;;;12.38;8.18;;;5.70;73.70;;;;;;5033410;28;20057;-55
2021/03/02 00:41:29;;;;;;;10.98;8.10;;;5.80;73.50;;;;;;5018944;28;20116;-52
2021/03/02 00:43:55;;;;;;;12.15;8.32;;;5.70;73.40;;;;;;5026204;28;20068;-54
2021/03/02 00:46:24;;;;;;;9.57;7.55;;;5.70;73.70;;;;;;5023158;28;20467;-57
2021/03/02 00:48:49;;;;;;;9.40;7.50;;;5.70;73.50;;;;;;5013403;28;20046;-54
2021/03/02 00:51:15;;;;;;;8.65;7.13;;;5.70;73.60;;;;;;5031027;28;20516;-54
2021/03/02 00:53:41;;;;;;;10.77;7.85;;;5.70;73.30;;;;;;5029215;28;20033;-56
2021/03/02 00:56:07;;;;;;;10.68;8.00;;;5.80;73.30;;;;;;5023403;28;20028;-52
2021/03/02 00:58:33;;;;;;;11.27;7.72;;;5.80;73.50;;;;;;5031234;28;20021;-56
2021/03/02 01:00:59;;;;;;;10.95;7.88;;;5.70;73.30;;;;;;5019488;28;20025;-55
2021/03/02 01:03:25;;;;;;;9.48;7.18;;;5.70;73.30;;;;;;5029893;28;20032;-52
2021/03/02 01:05:53;;;;;;;10.93;7.68;;;5.80;73.40;;;;;;5029503;28;20030;-55
2021/03/02 01:08:19;;;;;;;9.23;7.45;;;5.70;73.20;;;;;;5031680;28;20075;-55
2021/03/02 01:10:44;;;;;;;8.80;7.25;;;5.70;73.20;;;;;;5034150;28;20029;-54
2021/03/02 01:13:11;;;;;;;9.82;6.78;;;5.70;73.20;;;;;;5032572;28;20079;-56
2021/03/02 01:15:37;;;;;;;8.50;6.53;;;5.80;73.30;;;;;;5020493;28;20152;-54
2021/03/02 01:18:04;;;;;;;10.07;7.82;;;5.80;73.20;;;;;;5021580;28;20090;-53
2021/03/02 01:20:30;;;;;;;9.50;6.93;;;5.80;73.20;;;;;;5033098;28;20392;-54
2021/03/02 01:22:56;;;;;;;10.02;7.45;;;5.80;73.20;;;;;;5036195;28;20033;-55
2021/03/02 01:25:23;;;;;;;9.98;7.13;;;5.80;73.10;;;;;;5036323;28;20026;-53
2021/03/02 01:27:49;;;;;;;8.85;6.85;;;5.80;73.10;;;;;;5032305;28;20034;-56
2021/03/02 01:30:17;;;;;;;9.15;6.82;;;5.80;73.00;;;;;;5020700;28;20040;-56
2021/03/02 01:32:42;;;;;;;9.65;7.25;;;5.80;72.80;;;;;;5032389;28;20029;-54
2021/03/02 01:35:12;;;;;;;8.70;6.65;;;5.90;72.80;;;;;;5017046;28;20091;-53
2021/03/02 01:37:38;;;;;;;10.27;7.15;;;5.80;72.70;;;;;;5027093;28;20474;-56
2021/03/02 01:40:16;;;;;;;9.02;6.53;;;5.90;72.70;;;;;;5019852;28;20032;-55
2021/03/02 01:42:42;;;;;;;9.50;6.68;;;5.80;72.70;;;;;;5017117;28;20061;-54
2021/03/02 01:45:10;;;;;;;8.07;6.78;;;5.80;73.00;;;;;;5021200;28;20038;-57
2021/03/02 01:47:37;;;;;;;9.02;6.13;;;5.90;72.70;;;;;;5024026;28;20022;-55
2021/03/02 01:50:09;;;;;;;9.77;6.88;;;5.80;72.60;;;;;;5030356;28;20041;-54
2021/03/02 01:52:35;;;;;;;7.13;6.05;;;5.80;72.70;;;;;;5024764;28;20481;-54
2021/03/02 01:55:02;;;;;;;8.70;6.45;;;5.80;72.50;;;;;;5016428;28;20036;-55
2021/03/02 01:57:28;;;;;;;8.68;6.32;;;5.80;72.40;;;;;;5032816;28;20499;-56
2021/03/02 01:59:53;;;;;;;9.25;6.78;;;5.90;73.10;;;;;;5030808;28;20097;-56
2021/03/02 02:02:32;;;;;;;8.50;7.03;;;5.90;72.40;;;;;;5032987;28;20378;-55
2021/03/02 02:04:59;;;;;;;8.70;6.32;;;5.90;72.20;;;;;;5031230;28;20064;-57
2021/03/02 02:07:35;;;;;;;8.00;6.47;;;5.90;72.20;;;;;;5034225;28;20025;-53
2021/03/02 02:10:04;;;;;;;7.13;6.00;;;5.80;72.10;;;;;;5035318;28;20030;-55
2021/03/02 02:12:37;;;;;;;8.10;6.10;;;5.80;72.20;;;;;;5036059;28;20026;-56
2021/03/02 02:15:14;;;;;;;7.82;6.07;;;5.80;72.30;;;;;;5018335;28;20058;-54
2021/03/02 02:17:45;;;;;;;7.65;5.97;;;5.80;72.20;;;;;;5033788;28;20079;-54
2021/03/02 02:20:20;;;;;;;14.13;8.23;;;5.80;72.10;;;;;;5035723;28;20539;-55
2021/03/02 02:23:03;;;;;;;8.48;6.18;;;5.70;72.20;;;;;;5024803;28;20033;-52
2021/03/02 02:26:00;;;;;;;8.35;6.30;;;5.70;72.20;;;;;;5015762;28;20121;-55
2021/03/02 02:28:28;;;;;;;9.13;6.40;;;5.70;72.20;;;;;;5020135;28;20025;-55
2021/03/02 02:30:58;;;;;;;7.68;6.13;;;5.60;72.50;;;;;;5020709;28;20033;-55
2021/03/02 02:33:30;;;;;;;8.35;6.70;;;5.60;72.50;;;;;;5023746;28;20109;-57
2021/03/02 02:36:00;;;;;;;8.73;6.10;;;5.60;72.60;;;;;;5024631;28;20022;-54
2021/03/02 02:38:27;;;;;;;9.23;6.82;;;5.60;72.60;;;;;;5025855;28;20018;-55
2021/03/02 02:40:53;;;;;;;9.30;6.63;;;5.60;72.70;;;;;;5015572;28;20014;-55
2021/03/02 02:43:21;;;;;;;10.18;8.43;;;5.60;72.80;;;;;;5021797;28;20049;-55
2021/03/02 02:45:48;;;;;;;10.70;7.40;;;5.60;72.80;;;;;;5035370;28;20529;-55
2021/03/02 02:48:14;;;;;;;8.93;6.88;;;5.60;72.70;;;;;;5033424;28;20063;-55
2021/03/02 02:50:41;;;;;;;10.23;6.97;;;5.60;72.60;;;;;;5023561;28;20022;-55
2021/03/02 02:53:06;;;;;;;8.70;6.78;;;5.70;72.60;;;;;;5031523;28;20381;-53
2021/03/02 02:55:38;;;;;;;9.10;6.93;;;5.60;72.40;;;;;;5032645;28;20025;-52
2021/03/02 02:58:08;;;;;;;9.48;6.53;;;5.60;72.60;;;;;;5018721;28;20101;-55
2021/03/02 03:00:36;;;;;;;9.00;6.68;;;5.60;72.80;;;;;;5019625;28;20381;-55
2021/03/02 03:03:06;;;;;;;11.13;8.02;;;5.60;72.60;;;;;;5034909;28;20033;-54
2021/03/02 03:05:33;;;;;;;10.98;7.32;;;5.60;72.60;;;;;;5033875;28;20033;-56
2021/03/02 03:08:08;;;;;;;9.88;6.68;;;5.50;72.70;;;;;;5031208;28;20485;-55
2021/03/02 03:10:36;;;;;;;10.43;7.20;;;5.50;72.50;;;;;;5015165;28;20026;-52
2021/03/02 03:13:06;;;;;;;9.95;6.97;;;5.50;72.50;;;;;;5017709;28;20072;-54
2021/03/02 03:15:35;;;;;;;11.40;7.03;;;5.50;72.60;;;;;;5014937;28;20056;-57
2021/03/02 03:18:08;;;;;;;9.55;6.55;;;5.50;72.70;;;;;;5015157;28;20034;-55
2021/03/02 03:20:35;;;;;;;9.95;6.53;;;5.50;72.70;;;;;;5015199;28;20022;-55
2021/03/02 03:23:01;;;;;;;10.35;6.10;;;5.50;72.70;;;;;;5014129;28;20540;-54
2021/03/02 03:25:27;;;;;;;8.02;5.57;;;5.50;72.80;;;;;;5018437;28;20029;-55
2021/03/02 03:27:58;;;;;;;9.75;5.95;;;5.40;72.60;;;;;;5032260;28;20116;-56
2021/03/02 03:30:26;;;;;;;7.10;5.10;;;5.40;72.80;;;;;;5026506;28;20060;-56
2021/03/02 03:33:02;;;;;;;6.70;5.28;;;5.40;72.70;;;;;;5014805;28;20467;-54
2021/03/02 03:35:28;;;;;;;7.70;5.28;;;5.40;72.70;;;;;;5019199;28;20072;-56
2021/03/02 03:37:54;;;;;;;7.22;5.00;;;5.40;72.70;;;;;;5033791;28;20477;-56
2021/03/02 03:40:21;;;;;;;6.95;5.03;;;5.40;72.80;;;;;;5032973;28;20041;-53
2021/03/02 03:42:47;;;;;;;7.28;5.18;;;5.40;72.80;;;;;;5033413;28;20029;-57
2021/03/02 03:45:13;;;;;;;6.25;5.03;;;5.40;72.80;;;;;;5013846;28;20032;-57
2021/03/02 03:47:39;;;;;;;7.32;5.40;;;5.40;72.70;;;;;;5014109;28;20485;-53
2021/03/02 03:50:06;;;;;;;5.65;4.70;;;5.40;72.60;;;;;;5023179;28;20034;-54
2021/03/02 03:52:34;;;;;;;7.20;5.13;;;5.40;72.50;;;;;;5014166;28;20132;-53
2021/03/02 03:55:01;;;;;;;8.05;4.70;;;5.40;72.50;;;;;;5014168;28;20076;-56
2021/03/02 03:57:28;;;;;;;7.38;5.35;;;5.40;72.70;;;;;;5025431;28;20024;-53
2021/03/02 03:59:54;;;;;;;7.72;5.30;;;5.40;72.60;;;;;;5014767;28;20076;-56
2021/03/02 04:02:21;;;;;;;8.52;5.60;;;5.30;72.70;;;;;;5030502;28;20026;-56
2021/03/02 04:04:47;;;;;;;7.13;5.55;;;5.30;72.60;;;;;;5029968;28;20044;-52
2021/03/02 04:07:14;;;;;;;7.45;5.63;;;5.30;72.60;;;;;;5032351;28;20044;-55
2021/03/02 04:09:41;;;;;;;8.70;5.50;;;5.30;72.60;;;;;;5020636;28;20033;-57
2021/03/02 04:12:10;;;;;;;7.43;5.57;;;5.40;72.70;;;;;;5014034;28;20030;-54
2021/03/02 04:14:36;;;;;;;6.95;5.25;;;5.30;72.60;;;;;;5023119;28;20032;-56
2021/03/02 04:17:03;;;;;;;7.18;5.18;;;5.30;72.50;;;;;;5032131;28;20092;-54
2021/03/02 04:19:29;;;;;;;7.22;4.65;;;5.30;72.50;;;;;;5032105;28;20409;-52
2021/03/02 04:21:55;;;;;;;6.10;4.70;;;5.30;72.60;;;;;;5032546;28;20037;-53
2021/03/02 04:24:21;;;;;;;6.65;5.10;;;5.30;72.60;;;;;;5033497;28;20029;-57
2021/03/02 04:26:47;;;;;;;6.93;4.88;;;5.30;72.60;;;;;;5027776;28;20021;-53
2021/03/02 04:29:13;;;;;;;6.75;5.15;;;5.30;72.50;;;;;;5031513;28;20044;-54
2021/03/02 04:31:39;;;;;;;6.50;4.78;;;5.30;72.50;;;;;;5026035;28;20095;-54
2021/03/02 04:34:07;;;;;;;6.25;5.00;;;5.20;72.30;;;;;;5033466;28;20021;-53
2021/03/02 04:36:33;;;;;;;7.93;5.15;;;5.20;72.60;;;;;;5032487;28;20018;-55
2021/03/02 04:38:59;;;;;;;7.95;5.03;;;5.10;72.30;;;;;;5032633;28;20021;-54
2021/03/02 04:41:24;;;;;;;7.72;5.47;;;5.10;72.60;;;;;;5031745;28;20111;-56
2021/03/02 04:43:50;;;;;;;8.60;5.53;;;5.00;72.70;;;;;;5028581;28;20033;-55
2021/03/02 04:46:19;;;;;;;8.82;6.13;;;5.00;72.80;;;;;;5019445;28;20433;-54
2021/03/02 04:48:45;;;;;;;7.95;5.97;;;5.00;72.90;;;;;;5021447;28;20041;-56
2021/03/02 04:51:11;;;;;;;8.50;5.78;;;4.90;72.90;;;;;;5036861;28;20356;-55
2021/03/02 04:53:36;;;;;;;8.30;5.57;;;5.00;73.00;;;;;;5037384;28;20025;-56
2021/03/02 04:56:02;;;;;;;6.18;5.20;;;4.90;73.00;;;;;;5029479;28;20025;-54
2021/03/02 04:58:28;;;;;;;6.00;4.95;;;4.90;72.90;;;;;;5036721;28;20446;-56
2021/03/02 05:00:54;;;;;;;7.80;5.47;;;4.90;73.00;;;;;;5029206;28;20105;-57
2021/03/02 05:03:20;;;;;;;6.93;5.18;;;4.90;73.00;;;;;;5026678;28;20398;-57
2021/03/02 05:05:46;;;;;;;6.97;4.90;;;4.90;73.00;;;;;;5016919;28;20076;-52
2021/03/02 05:08:11;;;;;;;6.57;5.05;;;5.00;74.00;;;;;;5027554;28;20030;-57
2021/03/02 05:10:37;;;;;;;6.82;5.05;;;4.90;73.10;;;;;;5018128;28;20474;-56
2021/03/02 05:13:03;;;;;;;8.25;5.43;;;5.00;73.30;;;;;;5017086;28;20026;-53
2021/03/02 05:15:29;;;;;;;7.15;5.10;;;5.00;73.40;;;;;;5035781;28;20102;-57
2021/03/02 05:17:54;;;;;;;6.35;4.60;;;5.10;73.50;;;;;;5036946;28;20040;-57
2021/03/02 05:20:20;;;;;;;5.68;4.55;;;5.10;73.30;;;;;;5036884;28;20025;-55
2021/03/02 05:22:46;;;;;;;5.65;4.30;;;5.20;73.30;;;;;;5034098;28;20061;-55
2021/03/02 05:25:12;;;;;;;6.85;4.88;;;5.20;73.10;;;;;;5035861;28;20425;-56
2021/03/02 05:27:38;;;;;;;7.82;4.88;;;5.30;73.20;;;;;;5025097;28;20515;-54
2021/03/02 05:30:04;;;;;;;6.53;4.75;;;5.30;73.20;;;;;;5019160;28;20037;-54
2021/03/02 05:32:30;;;;;;;7.15;4.55;;;5.40;73.10;;;;;;5035309;28;20111;-56
2021/03/02 05:34:55;;;;;;;7.20;4.82;;;5.40;73.30;;;;;;5035274;28;20026;-57
2021/03/02 05:37:21;;;;;;;7.88;5.40;;;5.50;73.20;;;;;;5033671;28;20029;-53
2021/03/02 05:39:47;;;;;;;7.30;4.72;;;5.50;72.80;;;;;;5035664;28;20022;-56
2021/03/02 05:42:12;;;;;;;6.32;4.65;;;5.60;73.00;;;;;;5035961;28;20061;-57
2021/03/02 05:44:38;;;;;;;7.57;5.20;;;5.70;73.20;;;;;;5033166;28;20367;-55
2021/03/02 05:47:04;;;;;;;5.63;4.70;;;5.80;72.80;;;;;;5029774;28;20033;-53
2021/03/02 05:49:30;;;;;;;8.05;5.50;;;5.80;72.70;;;;;;5027555;28;20045;-55
2021/03/02 05:52:00;;;;;;;7.90;5.95;;;5.90;72.90;;;;;;5034273;28;20101;-54
2021/03/02 05:54:26;;;;;;;7.72;6.18;;;6.00;73.00;;;;;;5034836;28;20033;-53
2021/03/02 05:56:52;;;;;;;7.20;5.57;;;6.10;73.30;;;;;;5036444;28;20052;-53
2021/03/02 05:59:17;;;;;;;7.05;5.88;;;6.20;73.40;;;;;;5036452;28;20056;-55
2021/03/02 06:01:43;;;;;;;7.95;5.88;;;6.30;72.80;;;;;;5022111;28;20026;-53
2021/03/02 06:04:16;;;;;;;7.03;5.50;;;6.50;72.60;;;;;;5028909;28;20036;-54
2021/03/02 06:06:43;;;;;;;7.70;6.07;;;6.60;72.70;;;;;;5027304;28;20030;-55
2021/03/02 06:09:09;;;;;;;7.97;5.28;;;6.70;73.30;;;;;;5032502;28;20413;-54
2021/03/02 06:11:36;;;;;;;7.18;5.10;;;6.90;73.10;;;;;;5035680;28;20128;-54
2021/03/02 06:14:24;;;;;;;8.48;6.30;;;7.00;72.40;;;;;;5019300;28;20076;-54
2021/03/02 06:16:52;;;;;;;9.00;5.50;;;7.20;71.90;;;;;;5014738;28;20028;-57
2021/03/02 06:19:34;;;;;;;7.50;5.15;;;7.30;72.30;;;;;;5023798;28;20096;-55
2021/03/02 06:22:00;;;;;;;7.57;5.50;;;7.60;71.80;;;;;;5035032;28;20053;-54
2021/03/02 06:24:40;;;;;;;8.48;5.32;;;7.80;71.20;;;;;;5035658;28;20060;-53
2021/03/02 06:27:11;;;;;;;7.03;5.30;;;8.00;70.20;;;;;;5032611;28;20026;-53
2021/03/02 06:29:38;;;;;;;6.68;4.68;;;8.00;68.80;;;;;;5027182;28;20029;-56
2021/03/02 06:32:04;;;;;;;8.85;5.03;;;8.00;68.30;;;;;;5026238;28;20397;-56
2021/03/02 06:34:30;;;;;;;6.05;4.93;;;8.00;67.50;;;;;;5015997;28;20041;-55
2021/03/02 06:36:55;;;;;;;6.40;4.45;;;7.90;66.60;;;;;;5028862;28;20021;-55
2021/03/02 06:39:33;;;;;;;6.43;4.50;;;7.70;66.70;;;;;;5034545;28;20053;-56
2021/03/02 06:42:15;;;;;;;7.05;5.18;;;7.50;67.60;;;;;;5031737;28;20086;-56
2021/03/02 06:44:49;;;;;;;8.02;5.15;;;7.30;67.10;;;;;;5021258;28;20030;-55
2021/03/02 06:47:36;;;;;;;6.93;4.82;;;7.10;67.20;;;;;;5034900;28;20072;-55
2021/03/02 06:50:12;;;;;;;7.22;4.97;;;7.00;67.60;;;;;;5024773;28;20109;-53
2021/03/02 06:52:45;;;;;;;8.45;5.10;;;6.80;67.80;;;;;;5025756;28;20022;-54
2021/03/02 06:55:31;;;;;;;7.25;5.13;;;6.70;67.90;;;;;;5030712;28;20100;-56
2021/03/02 06:58:17;;;;;;;6.85;5.28;;;6.50;67.70;;;;;;5021534;28;20053;-52
2021/03/02 07:00:54;;;;;;;6.53;4.90;;;6.40;68.20;;;;;;5023710;28;21518;-54
2021/03/02 07:03:30;;;;;;;8.32;5.95;;;6.20;68.30;;;;;;5019889;28;20057;-53
2021/03/02 07:06:04;;;;;;;7.70;5.88;;;6.10;68.60;;;;;;5024018;28;20148;-54
2021/03/02 07:08:31;;;;;;;6.40;5.13;;;5.90;69.00;;;;;;5025429;28;20185;-54
2021/03/02 07:10:59;;;;;;;7.07;5.18;;;5.80;69.20;;;;;;5014973;28;20164;-55
2021/03/02 07:13:28;;;;;;;8.48;5.45;;;5.70;69.50;;;;;;5021416;28;20087;-54
2021/03/02 07:15:54;;;;;;;7.80;5.38;;;5.70;69.90;;;;;;5011651;28;20026;-56
2021/03/02 07:18:23;;;;;;;8.57;5.57;;;5.70;70.10;;;;;;5010652;28;20545;-53
2021/03/02 07:20:50;;;;;;;7.47;5.85;;;5.70;70.10;;;;;;5014838;28;20053;-55
2021/03/02 07:23:23;;;;;;;8.60;5.82;;;5.60;70.20;;;;;;5017061;28;20082;-52
2021/03/02 07:25:50;;;;;;;6.43;5.32;;;5.60;70.40;;;;;;5017053;28;20492;-55
2021/03/02 07:28:21;;;;;;;8.27;6.28;;;5.60;70.60;;;;;;5017174;28;20393;-54
2021/03/02 07:30:48;;;;;;;9.80;5.85;;;5.60;70.80;;;;;;5014556;28;20029;-52
2021/03/02 07:33:14;;;;;;;7.70;5.95;;;5.60;71.00;;;;;;5019409;28;20437;-56
2021/03/02 07:35:41;;;;;;;9.02;5.55;;;5.70;70.90;;;;;;5014914;28;20532;-56
2021/03/02 07:38:19;;;;;;;8.50;6.15;;;5.70;71.10;;;;;;5016963;28;20540;-55
2021/03/02 07:40:49;;;;;;;7.85;5.82;;;5.70;70.80;;;;;;5008883;28;20062;-54
2021/03/02 07:43:36;;;;;;;10.83;6.57;;;5.70;70.80;;;;;;5008864;28;20038;-52
2021/03/02 07:46:28;;;;;;;7.82;5.75;;;5.70;70.50;;;;;;5014245;28;20076;-52
2021/03/02 07:48:54;;;;;;;6.85;5.72;;;5.70;71.00;;;;;;5016559;28;20060;-56
2021/03/02 07:51:22;;;;;;;6.65;5.70;;;5.80;71.20;;;;;;5010969;28;20041;-56
2021/03/02 07:53:50;;;;;;;7.97;6.00;;;5.80;71.10;;;;;;5013382;28;20041;-52
2021/03/02 07:56:22;;;;;;;7.97;5.60;;;5.80;70.90;;;;;;5010089;28;20045;-57
2021/03/02 07:59:10;;;;;;;6.93;5.97;;;5.80;70.90;;;;;;5010058;28;20021;-56
2021/03/02 08:01:36;;;;;;;9.32;6.05;;;5.70;70.90;;;;;;5010428;28;20056;-52
2021/03/02 08:04:14;;;;;;;8.18;5.47;;;5.70;71.00;;;;;;5009169;28;20029;-52
2021/03/02 08:06:49;;;;;;;7.00;5.60;;;5.70;71.00;;;;;;5011793;28;20060;-55
2021/03/02 08:09:24;;;;;;;8.80;5.78;;;5.70;71.30;;;;;;5013735;28;20488;-55
2021/03/02 08:11:50;;;;;;;7.95;5.78;;;5.70;71.00;;;;;;5010095;28;20455;-55
2021/03/02 08:14:16;;;;;;;8.98;6.15;;;5.70;71.00;;;;;;5011410;28;20034;-55
2021/03/02 08:17:05;;;;;;;6.38;5.22;;;5.70;71.20;;;;;;5002506;28;20064;-54
2021/03/02 08:19:39;;;;;;;7.82;6.05;;;5.70;71.10;;;;;;5006840;28;20072;-54
2021/03/02 08:22:17;;;;;;;7.70;5.60;;;5.60;71.20;;;;;;5008442;28;20029;-54
2021/03/02 08:24:52;;;;;;;6.80;5.20;;;5.60;71.40;;;;;;4999667;28;20160;-53
2021/03/02 08:27:39;;;;;;;7.10;5.28;;;5.60;71.60;;;;;;5005915;28;20037;-55
2021/03/02 08:30:11;;;;;;;7.80;6.10;;;5.70;71.60;;;;;;5006902;28;20037;-53
2021/03/02 08:32:38;;;;;;;8.80;5.72;;;5.60;71.50;;;;;;5009979;28;20423;-55
2021/03/02 08:35:13;;;;;;;8.10;6.10;;;5.60;71.60;;;;;;5012634;28;20025;-54
2021/03/02 08:37:39;;;;;;;7.78;5.90;;;5.60;71.60;;;;;;5006105;28;20431;-55
2021/03/02 08:40:07;;;;;;;7.95;6.35;;;5.50;71.60;;;;;;5009496;28;20032;-55
2021/03/02 08:42:33;;;;;;;7.90;6.10;;;5.50;71.70;;;;;;5006119;28;20343;-55
2021/03/02 08:45:10;;;;;;;8.75;5.88;;;5.50;71.90;;;;;;5013534;28;20037;-54
2021/03/02 08:47:37;;;;;;;8.20;5.90;;;5.50;72.10;;;;;;5010872;28;20029;-54
2021/03/02 08:50:06;;;;;;;8.60;6.20;;;5.40;72.00;;;;;;5007025;28;20068;-54
2021/03/02 08:52:44;;;;;;;11.00;7.07;;;5.50;72.30;;;;;;5008286;28;20065;-55
2021/03/02 08:55:10;;;;;;;8.00;6.03;;;5.50;72.20;;;;;;5012617;28;20115;-54
2021/03/02 08:57:44;;;;;;;8.43;6.50;;;5.50;72.10;;;;;;5010276;28;25147;-52
2021/03/02 09:00:13;;;;;;;8.55;6.70;;;5.50;72.40;;;;;;5006442;28;20542;-53
2021/03/02 09:02:45;;;;;;;9.40;6.55;;;5.50;72.60;;;;;;5006414;28;20407;-54
2021/03/02 09:05:18;;;;;;;10.52;6.28;;;5.50;72.40;;;;;;5010479;28;20029;-53
2021/03/02 09:08:04;;;;;;;9.38;6.85;;;5.50;72.30;;;;;;5009033;28;20033;-51
2021/03/02 09:10:29;;;;;;;9.15;6.43;;;5.40;72.10;;;;;;5016879;28;20104;-55
2021/03/02 09:12:55;;;;;;;8.88;6.57;;;5.40;72.40;;;;;;5017134;28;20048;-52
2021/03/02 09:15:36;;;;;;;9.70;6.45;;;5.40;72.50;;;;;;5011497;28;20041;-54
2021/03/02 09:18:15;;;;;;;12.23;7.10;;;5.40;73.00;;;;;;5006204;28;20026;-53
2021/03/02 09:20:54;;;;;;;9.52;6.93;;;5.50;72.80;;;;;;4999734;28;20051;-51
2021/03/02 09:23:20;;;;;;;10.23;7.63;;;5.50;72.90;;;;;;5008136;28;20048;-56
2021/03/02 09:25:45;;;;;;;13.07;7.97;;;5.50;72.90;;;;;;5007066;28;20018;-55
2021/03/02 09:28:20;;;;;;;10.20;7.75;;;5.50;72.60;;;;;;5008058;28;20025;-55
2021/03/02 09:30:46;;;;;;;10.57;7.85;;;5.50;72.50;;;;;;5010765;28;20064;-52
2021/03/02 09:33:13;;;;;;;11.13;7.32;;;5.50;72.60;;;;;;5010003;28;20065;-54
2021/03/02 09:35:41;;;;;;;10.60;7.28;;;5.40;72.60;;;;;;5006605;28;20025;-52
2021/03/02 09:38:07;;;;;;;9.13;6.95;;;5.40;72.90;;;;;;5009736;28;20026;-53
2021/03/02 09:40:42;;;;;;;10.30;7.30;;;5.40;73.20;;;;;;5009293;28;20036;-55
2021/03/02 09:43:08;;;;;;;9.90;7.05;;;5.50;73.30;;;;;;5006532;28;20108;-55
2021/03/02 09:45:34;;;;;;;10.50;7.00;;;5.50;73.40;;;;;;5010803;28;20033;-54
2021/03/02 09:48:07;;;;;;;8.73;6.35;;;5.60;72.90;;;;;;5010693;28;20060;-51
2021/03/02 09:50:37;;;;;;;9.32;7.00;;;5.60;72.80;;;;;;5011339;28;20125;-56
2021/03/02 09:53:12;;;;;;;10.70;7.47;;;5.50;72.50;;;;;;5010766;28;20765;-53
2021/03/02 09:55:38;;;;;;;11.23;8.05;;;5.50;72.90;;;;;;5011363;28;20029;-52
2021/03/02 09:58:10;;;;;;;10.25;7.63;;;5.50;72.90;;;;;;5013906;28;20390;-53
2021/03/02 10:00:45;;;;;;;14.07;9.00;;;5.50;72.80;;;;;;5009814;28;20052;-55
2021/03/02 10:03:13;;;;;;;12.98;8.48;;;5.50;72.90;;;;;;5001449;28;21698;-54
2021/03/02 10:05:42;;;;;;;12.85;8.43;;;5.40;72.70;;;;;;5001319;28;20036;-56
2021/03/02 10:08:20;;;;;;;16.00;9.80;;;5.40;73.30;;;;;;5011236;28;20690;-53
2021/03/02 10:10:47;;;;;;;14.40;9.02;;;5.40;73.30;;;;;;4991887;28;20038;-55
2021/03/02 10:13:20;;;;;;;12.38;8.18;;;5.40;73.20;;;;;;5004532;28;20083;-55
2021/03/02 10:15:46;;;;;;;13.60;8.63;;;5.50;73.20;;;;;;5001835;28;20021;-55
2021/03/02 10:18:24;;;;;;;14.43;9.55;;;5.50;73.30;;;;;;5002354;28;20032;-55
2021/03/02 10:21:07;;;;;;;14.95;9.00;;;5.50;73.00;;;;;;5002434;28;20025;-55
2021/03/02 10:23:34;;;;;;;15.13;9.95;;;5.50;72.70;;;;;;5002047;28;21982;-53
2021/03/02 10:25:59;;;;;;;12.02;8.25;;;5.40;72.90;;;;;;5000137;28;20053;-54
2021/03/02 10:28:32;;;;;;;12.65;8.75;;;5.40;73.20;;;;;;5004139;28;20171;-52
2021/03/02 10:30:59;;;;;;;13.80;9.32;;;5.40;73.10;;;;;;5003682;28;20030;-55
2021/03/02 10:33:25;;;;;;;18.52;11.23;;;5.30;73.00;;;;;;5002984;28;20026;-53
2021/03/02 10:35:51;;;;;;;13.68;9.40;;;5.40;72.90;;;;;;5006882;28;20026;-55
2021/03/02 10:38:16;;;;;;;18.98;11.02;;;5.30;73.00;;;;;;5010026;28;20013;-54
2021/03/02 10:40:42;;;;;;;13.68;8.57;;;5.30;73.10;;;;;;5002833;28;20022;-55
2021/03/02 10:43:08;;;;;;;16.70;9.82;;;5.20;73.30;;;;;;5006167;28;20554;-53
2021/03/02 10:45:34;;;;;;;14.88;9.15;;;5.20;73.50;;;;;;5009820;28;20045;-54
2021/03/02 10:48:00;;;;;;;17.88;11.13;;;5.30;73.40;;;;;;5009306;28;20050;-55
2021/03/02 10:50:25;;;;;;;16.10;10.32;;;5.30;73.10;;;;;;4999247;28;20033;-56
2021/03/02 10:52:51;;;;;;;17.25;11.32;;;5.20;73.10;;;;;;5008415;28;20457;-56
2021/03/02 10:55:17;;;;;;;21.40;11.88;;;5.20;73.30;;;;;;5007999;28;20061;-55
2021/03/02 10:57:43;;;;;;;20.98;11.02;;;5.10;73.30;;;;;;5004228;28;20045;-52
2021/03/02 11:00:09;;;;;;;16.05;10.32;;;5.10;73.50;;;;;;5007323;28;20109;-54
2021/03/02 11:02:35;;;;;;;22.38;12.35;;;5.10;73.60;;;;;;5011517;28;20383;-56
2021/03/02 11:05:00;;;;;;;19.35;11.43;;;5.00;73.40;;;;;;4997293;28;20049;-55
2021/03/02 11:07:26;;;;;;;19.13;11.57;;;5.00;73.70;;;;;;5007841;28;20037;-55
2021/03/02 11:09:52;;;;;;;22.33;12.65;;;5.00;74.10;;;;;;5004358;28;20025;-55
2021/03/02 11:12:17;;;;;;;20.83;11.73;;;5.00;74.20;;;;;;5011802;28;20039;-55
2021/03/02 11:14:44;;;;;;;20.60;11.50;;;5.00;74.10;;;;;;5013567;28;20029;-53
2021/03/02 11:17:12;;;;;;;22.63;12.15;;;5.00;74.20;;;;;;5016536;28;20022;-57
2021/03/02 11:19:38;;;;;;;24.67;12.27;;;5.00;74.40;;;;;;5009034;28;20860;-57
2021/03/02 11:22:04;;;;;;;18.92;10.93;;;5.00;74.20;;;;;;5008992;28;20026;-53
2021/03/02 11:24:30;;;;;;;21.52;11.80;;;5.00;74.10;;;;;;5013325;28;20037;-56
2021/03/02 11:26:56;;;;;;;22.05;11.70;;;5.00;74.30;;;;;;5009988;28;20035;-55
2021/03/02 11:29:21;;;;;;;22.58;12.18;;;5.10;74.40;;;;;;5001623;28;20054;-55
2021/03/02 11:31:47;;;;;;;21.70;11.68;;;5.10;74.10;;;;;;5011317;28;20669;-55
2021/03/02 11:34:13;;;;;;;21.73;11.52;;;5.20;74.00;;;;;;5016024;28;20022;-58
2021/03/02 11:36:39;;;;;;;23.48;13.27;;;5.10;74.10;;;;;;5015365;28;20478;-55
2021/03/02 11:39:05;;;;;;;26.58;14.10;;;5.10;73.90;;;;;;5011572;28;20029;-53
2021/03/02 11:41:30;;;;;;;25.70;12.98;;;5.10;74.10;;;;;;5011237;28;20041;-52
2021/03/02 11:43:56;;;;;;;21.08;12.02;;;5.10;74.10;;;;;;5013664;28;20064;-53
2021/03/02 11:46:22;;;;;;;18.60;11.60;;;5.20;74.40;;;;;;5013323;28;20783;-54
2021/03/02 11:48:48;;;;;;;20.70;12.32;;;5.20;74.40;;;;;;5011109;28;20521;-54
2021/03/02 11:51:13;;;;;;;20.17;11.77;;;5.20;74.20;;;;;;5011519;28;20061;-54
2021/03/02 11:53:39;;;;;;;21.40;12.73;;;5.30;74.10;;;;;;5007954;28;20030;-55
2021/03/02 11:56:05;;;;;;;25.60;13.80;;;5.30;74.00;;;;;;5010139;28;20064;-53
2021/03/02 11:58:30;;;;;;;23.23;13.20;;;5.30;73.80;;;;;;5008947;28;20040;-55
2021/03/02 12:00:56;;;;;;;21.77;11.88;;;5.30;73.70;;;;;;5004957;28;20065;-55
2021/03/02 12:03:23;;;;;;;25.98;13.18;;;5.30;73.70;;;;;;5001983;28;20034;-54
2021/03/02 12:05:50;;;;;;;21.15;11.65;;;5.30;73.70;;;;;;5014179;28;20037;-55
2021/03/02 12:08:16;;;;;;;23.23;12.15;;;5.30;73.90;;;;;;5003803;28;20039;-54
2021/03/02 12:10:42;;;;;;;24.33;14.18;;;5.30;74.00;;;;;;5000089;28;20026;-55
2021/03/02 12:13:08;;;;;;;23.60;11.80;;;5.30;74.00;;;;;;5005537;28;21164;-55
2021/03/02 12:15:33;;;;;;;24.40;13.35;;;5.30;74.20;;;;;;5009450;28;20036;-53
2021/03/02 12:17:59;;;;;;;22.45;12.43;;;5.40;74.50;;;;;;5011993;28;20052;-55
2021/03/02 12:20:25;;;;;;;20.85;12.05;;;5.40;74.00;;;;;;5012126;28;20529;-55
2021/03/02 12:22:51;;;;;;;21.58;12.45;;;5.40;74.00;;;;;;5021447;28;20076;-54
2021/03/02 12:25:17;;;;;;;22.65;12.95;;;5.40;73.70;;;;;;5010199;28;20108;-56
2021/03/02 12:27:43;;;;;;;23.33;13.55;;;5.40;73.50;;;;;;5006726;28;20066;-54
2021/03/02 12:30:10;;;;;;;24.35;12.27;;;5.40;73.80;;;;;;5002593;28;20038;-54
2021/03/02 12:32:36;;;;;;;21.15;11.45;;;5.40;73.90;;;;;;5006714;28;20420;-55
2021/03/02 12:35:03;;;;;;;24.10;12.38;;;5.40;73.80;;;;;;5007007;28;20033;-56
2021/03/02 12:37:29;;;;;;;18.52;11.65;;;5.40;73.80;;;;;;5009093;28;20038;-53
2021/03/02 12:39:55;;;;;;;21.13;11.63;;;5.50;73.70;;;;;;5014708;28;20392;-55
2021/03/02 12:42:21;;;;;;;21.42;12.90;;;5.50;73.60;;;;;;5013171;28;20037;-56
2021/03/02 12:44:47;;;;;;;22.13;11.50;;;5.50;73.50;;;;;;5015998;28;20116;-56
2021/03/02 12:47:12;;;;;;;21.38;12.18;;;5.50;73.50;;;;;;5006521;28;20523;-56
2021/03/02 12:49:38;;;;;;;18.80;11.68;;;5.50;73.30;;;;;;5006947;28;20057;-55
2021/03/02 12:52:06;;;;;;;20.60;11.70;;;5.50;73.80;;;;;;5008282;28;20026;-55
2021/03/02 12:54:33;;;;;;;21.73;11.77;;;5.50;73.10;;;;;;5010888;28;20030;-56
2021/03/02 12:56:58;;;;;;;22.40;11.57;;;5.50;73.20;;;;;;5011767;28;20044;-55
2021/03/02 12:59:24;;;;;;;22.30;13.38;;;5.50;73.30;;;;;;5009167;28;20497;-55